Time;durP1;ratioP1;P1;durP2;ratioP2;P2;SDS_P1;SDS_P2;PMS_P1;PMS_P2;Temp;Humidity;BMP_temperature;BMP_pressure;BME280_temperature;BME280_humidity;BME280_pressure;Samples;Min_cycle;Max_cycle;Signal;HPM_P1;HPM_P2
2022/01/03 00:05:42;;;;;;;54.70;50.70;;;;;;;10.74;100.00;101270.09;2016839;71;33286;-69
2022/01/03 00:11:27;;;;;;;54.90;50.50;;;;;;;10.71;100.00;101261.48;2011567;71;32818;-75
2022/01/03 00:17:11;;;;;;;56.10;52.03;;;;;;;10.71;100.00;101257.31;1991420;71;32867;-69
2022/01/03 00:22:58;;;;;;;57.43;52.97;;;;;;;10.67;100.00;101249.25;2002464;71;33218;-74
2022/01/03 00:28:46;;;;;;;56.90;51.87;;;;;;;10.61;100.00;101251.18;2018387;71;32942;-75
2022/01/03 00:31:19;;;;;;;57.43;52.67;;;;;;;10.62;100.00;101268.14;1987253;72;26213;-75
2022/01/03 00:33:52;;;;;;;54.00;49.07;;;;;;;10.67;100.00;101264.53;1985125;72;26315;-68
2022/01/03 00:39:38;;;;;;;56.30;51.87;;;;;;;10.69;100.00;101260.39;2004458;71;33281;-75
2022/01/03 00:45:23;;;;;;;56.97;52.27;;;;;;;10.74;100.00;101264.53;2009511;71;32901;-68
2022/01/03 00:51:08;;;;;;;55.13;50.07;;;;;;;10.70;100.00;101268.98;1993340;71;32999;-69
2022/01/03 00:56:54;;;;;;;53.70;49.20;;;;;;;10.73;100.00;101272.62;2005401;71;32813;-68
2022/01/03 01:02:44;;;;;;;54.23;49.27;;;;;;;10.79;100.00;101258.15;2013405;71;32834;-75
2022/01/03 01:08:32;;;;;;;55.27;50.80;;;;;;;10.75;100.00;101268.99;2007872;71;32956;-69
2022/01/03 01:14:18;;;;;;;55.37;50.97;;;;;;;10.80;100.00;101264.83;2008011;71;32835;-75
2022/01/03 01:20:04;;;;;;;55.97;51.17;;;;;;;10.79;100.00;101268.72;2014966;71;32920;-75
2022/01/03 01:31:50;;;;;;;53.83;49.07;;;;;;;10.76;100.00;101267.89;2014877;71;32817;-68
2022/01/03 01:37:39;;;;;;;53.87;49.60;;;;;;;10.72;100.00;101263.16;2011624;71;32863;-67
2022/01/03 01:43:31;;;;;;;57.30;52.63;;;;;;;10.84;100.00;101266.50;2011697;71;32767;-74
2022/01/03 01:49:19;;;;;;;56.03;51.23;;;;;;;10.75;100.00;101268.16;1991479;71;32743;-69
2022/01/03 01:55:07;;;;;;;55.30;50.97;;;;;;;10.76;100.00;101252.61;1995282;71;32744;-69
2022/01/03 02:01:11;;;;;;;55.23;50.93;;;;;;;10.77;100.00;101255.67;2011150;71;32805;-69
2022/01/03 02:07:05;;;;;;;55.63;50.60;;;;;;;10.69;100.00;101261.78;2014855;71;32800;-68
2022/01/03 02:09:40;;;;;;;56.87;52.27;;;;;;;10.67;100.00;101268.16;1983391;72;26204;-75
2022/01/03 02:12:14;;;;;;;54.83;49.90;;;;;;;10.68;100.00;101269.83;1961600;72;26254;-74
2022/01/03 02:18:00;;;;;;;56.50;52.00;;;;;;;10.68;100.00;101249.54;2011818;71;33246;-69
2022/01/03 02:23:44;;;;;;;56.53;51.93;;;;;;;10.66;100.00;101244.80;2009677;71;32881;-74
2022/01/03 02:29:28;;;;;;;56.30;51.73;;;;;;;10.70;100.00;101249.53;1996987;71;33267;-69
2022/01/03 02:35:13;;;;;;;59.60;55.03;;;;;;;10.73;100.00;101240.66;2014711;71;32925;-69
2022/01/03 02:40:59;;;;;;;54.00;50.07;;;;;;;10.68;100.00;101243.43;1991740;71;32751;-74
2022/01/03 02:46:43;;;;;;;56.73;52.43;;;;;;;10.73;100.00;101239.83;2000718;71;32750;-68
2022/01/03 02:52:31;;;;;;;55.60;51.43;;;;;;;10.70;100.00;101232.86;2011603;71;32738;-69
2022/01/03 02:58:15;;;;;;;56.73;52.23;;;;;;;10.73;100.00;101233.72;2013374;71;33428;-75
2022/01/03 03:04:02;;;;;;;58.37;53.20;;;;;;;10.66;100.00;101234.53;2014644;71;33017;-75
2022/01/03 03:09:46;;;;;;;56.37;51.97;;;;;;;10.66;100.00;101235.08;2007770;71;32826;-69
2022/01/03 03:15:32;;;;;;;56.83;52.63;;;;;;;10.69;100.00;101226.21;2008044;71;33285;-75
2022/01/03 03:21:16;;;;;;;53.77;49.27;;;;;;;10.66;100.00;101219.80;2000753;71;30804;-74
2022/01/03 03:27:01;;;;;;;56.03;51.90;;;;;;;10.73;100.00;101222.61;2004110;71;32758;-68
2022/01/03 03:32:47;;;;;;;55.40;51.33;;;;;;;10.63;100.00;101219.81;2011681;71;32755;-74
2022/01/03 03:38:31;;;;;;;55.23;51.53;;;;;;;10.68;100.00;101216.20;2011027;71;32802;-75
2022/01/03 03:44:16;;;;;;;56.47;51.97;;;;;;;10.69;100.00;101211.77;2011286;71;32913;-75
2022/01/03 03:50:01;;;;;;;52.90;48.70;;;;;;;10.75;100.00;101209.80;2015004;71;32942;-75
2022/01/03 03:55:45;;;;;;;53.40;49.37;;;;;;;10.69;100.00;101202.05;2000534;71;32723;-75
2022/01/03 04:01:29;;;;;;;53.93;49.80;;;;;;;10.66;100.00;101213.69;2000629;71;32863;-68
2022/01/03 04:07:14;;;;;;;53.10;48.97;;;;;;;10.63;100.00;101208.70;1995391;71;32737;-68
2022/01/03 04:12:58;;;;;;;53.00;48.97;;;;;;;10.61;100.00;101195.63;2018479;71;32955;-74
2022/01/03 04:18:44;;;;;;;55.47;51.33;;;;;;;10.60;100.00;101201.48;1998321;71;32979;-68
2022/01/03 04:24:28;;;;;;;52.47;48.90;;;;;;;10.60;100.00;101181.48;1995021;71;32755;-68
2022/01/03 04:30:14;;;;;;;54.60;50.80;;;;;;;10.62;100.00;101177.85;2015082;71;33449;-74
2022/01/03 04:35:58;;;;;;;54.17;49.47;;;;;;;10.55;100.00;101170.36;2011348;71;33350;-68
2022/01/03 04:41:42;;;;;;;57.63;53.27;;;;;;;10.50;100.00;101172.58;2014650;71;32903;-75
2022/01/03 04:47:26;;;;;;;56.93;52.43;;;;;;;10.45;100.00;101189.23;2008084;71;33228;-68
2022/01/03 04:53:11;;;;;;;55.70;51.47;;;;;;;10.41;100.00;101192.84;2015050;71;31518;-74
2022/01/03 04:58:56;;;;;;;55.80;51.53;;;;;;;10.42;100.00;101190.34;2008024;71;33201;-69
2022/01/03 05:04:40;;;;;;;55.20;50.33;;;;;;;10.39;100.00;101177.86;2015026;71;33376;-68
2022/01/03 05:10:32;;;;;;;52.93;49.20;;;;;;;10.41;100.00;101172.01;1904802;75;33818;-67
2022/01/03 05:16:17;;;;;;;53.60;49.07;;;;;;;10.44;100.00;101163.11;2014853;71;32827;-75
2022/01/03 05:22:02;;;;;;;54.47;50.60;;;;;;;10.45;100.00;101155.07;2002352;71;33378;-74
2022/01/03 05:27:47;;;;;;;53.70;49.30;;;;;;;10.51;100.00;101155.36;1977558;72;33421;-75
2022/01/03 05:33:32;;;;;;;54.20;49.77;;;;;;;10.54;100.00;101140.91;2004420;71;32899;-68
2022/01/03 05:39:17;;;;;;;53.33;49.60;;;;;;;10.60;100.00;101143.98;2014919;71;32941;-68
2022/01/03 05:45:06;;;;;;;52.77;48.90;;;;;;;10.57;100.00;101139.55;2014749;70;33322;-74
2022/01/03 05:50:50;;;;;;;52.53;48.60;;;;;;;10.70;100.00;101130.61;2011579;71;33360;-75
2022/01/03 05:56:34;;;;;;;53.10;48.40;;;;;;;10.74;100.00;101133.95;2004237;71;32845;-68
2022/01/03 06:02:18;;;;;;;51.37;47.47;;;;;;;10.71;100.00;101122.02;2016652;71;33476;-74
2022/01/03 06:08:03;;;;;;;54.77;50.53;;;;;;;10.67;100.00;101125.63;1991504;71;33247;-69
2022/01/03 06:13:47;;;;;;;54.00;49.27;;;;;;;10.74;100.00;101113.11;2009590;71;32829;-69
2022/01/03 06:19:33;;;;;;;55.47;50.90;;;;;;;10.64;100.00;101117.30;2011895;71;30947;-75
2022/01/03 06:25:19;;;;;;;55.47;50.47;;;;;;;10.71;100.00;101113.67;2001969;71;32816;-69
2022/01/03 06:31:05;;;;;;;55.07;50.63;;;;;;;10.67;100.00;101113.12;2012935;71;32808;-68
2022/01/03 06:36:49;;;;;;;59.17;53.30;;;;;;;10.70;100.00;101104.22;2014876;71;32873;-74
2022/01/03 06:42:34;;;;;;;55.73;50.87;;;;;;;10.81;100.00;101102.56;2011140;71;30956;-75
2022/01/03 06:48:18;;;;;;;55.30;50.60;;;;;;;10.79;100.00;101079.77;2003798;71;32821;-68
2022/01/03 06:54:04;;;;;;;58.00;52.70;;;;;;;10.82;100.00;101091.73;2016681;71;33329;-75
2022/01/03 06:59:56;;;;;;;58.00;52.70;;;;;;;10.81;100.00;101083.66;2009219;71;32835;-69
2022/01/03 07:05:43;;;;;;;57.93;52.50;;;;;;;10.74;100.00;101083.94;2011248;71;31392;-68
2022/01/03 07:11:27;;;;;;;56.93;52.17;;;;;;;10.77;100.00;101084.78;2016705;71;32839;-74
2022/01/03 07:23:17;;;;;;;59.07;53.77;;;;;;;10.64;100.00;101079.80;2008141;71;33184;-68
2022/01/03 07:29:00;;;;;;;59.70;54.57;;;;;;;10.67;100.00;101080.63;2014915;71;33296;-73
2022/01/03 07:34:44;;;;;;;59.13;53.83;;;;;;;10.71;100.00;101085.06;2014847;71;32925;-74
2022/01/03 07:40:29;;;;;;;56.80;51.53;;;;;;;10.70;100.00;101085.61;1995260;71;33220;-74
2022/01/03 07:46:13;;;;;;;58.50;53.27;;;;;;;10.82;100.00;101088.95;1991500;71;33218;-67
2022/01/03 07:51:58;;;;;;;58.07;53.03;;;;;;;10.80;100.00;101089.77;1995225;71;33391;-67
2022/01/03 07:57:43;;;;;;;57.63;52.40;;;;;;;10.70;100.00;101088.39;2018386;71;32806;-67
2022/01/03 08:03:29;;;;;;;58.77;53.60;;;;;;;10.77;100.00;101099.23;2000708;71;33242;-67
2022/01/03 08:09:13;;;;;;;54.43;50.00;;;;;;;10.95;100.00;101093.09;1998403;71;33350;-74
2022/01/03 08:14:58;;;;;;;56.43;52.03;;;;;;;10.77;100.00;101082.56;2006101;71;32845;-68
2022/01/03 08:20:43;;;;;;;58.90;53.93;;;;;;;10.71;100.00;101080.34;2014721;71;32902;-73
2022/01/03 08:26:29;;;;;;;56.03;51.23;;;;;;;10.66;100.00;101077.56;2008257;71;32822;-74
2022/01/03 08:32:13;;;;;;;58.67;53.57;;;;;;;10.63;100.00;101075.36;2002536;71;32878;-67
2022/01/03 08:37:59;;;;;;;57.50;52.90;;;;;;;10.65;100.00;101068.98;2009855;71;32801;-67
2022/01/03 08:43:43;;;;;;;55.93;51.57;;;;;;;10.65;100.00;101076.47;2004260;71;32800;-67
2022/01/03 08:49:27;;;;;;;55.57;51.20;;;;;;;10.59;100.00;101068.70;1996944;71;32821;-67
2022/01/03 08:55:13;;;;;;;55.17;50.87;;;;;;;10.61;100.00;101068.42;1995359;71;32870;-74
2022/01/03 09:00:58;;;;;;;57.90;53.37;;;;;;;10.71;100.00;101062.28;2000293;71;32900;-67
2022/01/03 09:06:43;;;;;;;55.37;51.27;;;;;;;10.63;100.00;101054.52;1994751;71;32883;-74
2022/01/03 09:12:28;;;;;;;51.33;47.57;;;;;;;10.61;100.00;101062.28;2009480;71;32812;-73
2022/01/03 09:18:14;;;;;;;51.90;48.37;;;;;;;10.58;100.00;101049.52;2009428;71;32931;-66
2022/01/03 09:24:18;;;;;;;50.90;47.47;;;;;;;10.57;100.00;101051.46;2005948;71;32756;-74
2022/01/03 09:29:54;;;;;;;51.50;47.80;;;;;;;10.68;100.00;101052.29;2007993;71;32844;-66
2022/01/03 09:35:38;;;;;;;52.67;48.97;;;;;;;10.73;100.00;101048.95;2014903;71;32828;-73
2022/01/03 09:41:25;;;;;;;50.77;47.33;;;;;;;10.72;100.00;101048.67;2005655;71;30902;-67
2022/01/03 09:47:12;;;;;;;49.17;45.97;;;;;;;10.72;100.00;101057.00;1996751;71;32850;-68
2022/01/03 09:52:58;;;;;;;48.60;45.70;;;;;;;10.79;100.00;101059.47;2000258;71;32813;-67
2022/01/03 09:58:42;;;;;;;50.60;47.30;;;;;;;10.81;100.00;101046.98;2005613;71;32904;-67
2022/01/03 10:04:28;;;;;;;47.67;44.53;;;;;;;10.84;100.00;101046.97;2005644;71;32915;-74
2022/01/03 10:10:14;;;;;;;47.90;44.87;;;;;;;10.86;100.00;101039.19;1998299;71;32828;-67
2022/01/03 10:15:59;;;;;;;46.50;43.70;;;;;;;10.87;100.00;101047.23;1994711;71;32838;-74
2022/01/03 10:21:47;;;;;;;45.23;42.63;;;;;;;10.87;100.00;101034.72;2008349;71;32775;-74
2022/01/03 10:27:51;;;;;;;47.40;44.30;;;;;;;10.89;100.00;101038.06;1962498;72;32875;-67
2022/01/03 10:33:51;;;;;;;48.27;45.13;;;;;;;10.96;100.00;101042.75;2016925;71;32877;-74
2022/01/03 10:39:45;;;;;;;45.73;42.93;;;;;;;11.03;100.00;101043.86;2016732;71;33344;-74
2022/01/03 10:45:33;;;;;;;47.40;44.50;;;;;;;11.07;100.00;101037.17;2005690;71;33084;-74
2022/01/03 10:51:25;;;;;;;45.47;42.90;;;;;;;11.12;100.00;101028.26;2011775;71;32803;-67
2022/01/03 10:57:11;;;;;;;45.37;42.70;;;;;;;11.21;100.00;101013.21;2016848;71;32906;-68
2022/01/03 11:03:25;;;;;;;46.37;43.57;;;;;;;11.22;100.00;101004.56;2016689;71;33022;-66
2022/01/03 11:15:24;;;;;;;46.90;43.57;;;;;;;11.29;100.00;100995.92;2015162;71;33458;-70
2022/01/03 11:21:15;;;;;;;48.37;44.73;;;;;;;11.31;100.00;100978.38;2011106;71;32946;-68
2022/01/03 11:27:02;;;;;;;48.83;45.50;;;;;;;11.40;100.00;100978.88;2009898;71;33349;-67
2022/01/03 11:32:48;;;;;;;48.00;44.73;;;;;;;11.45;100.00;100964.11;2016824;71;32967;-76
2022/01/03 11:38:32;;;;;;;47.93;44.60;;;;;;;11.49;100.00;100970.76;2009824;71;32846;-70
2022/01/03 11:44:17;;;;;;;48.10;44.63;;;;;;;11.49;100.00;100959.63;2006177;71;33311;-74
2022/01/03 11:50:03;;;;;;;48.60;45.40;;;;;;;11.46;100.00;100957.44;2009346;71;32935;-73
2022/01/03 11:55:53;;;;;;;48.47;45.47;;;;;;;11.55;100.00;100947.92;2013505;71;32763;-69
2022/01/03 12:08:25;;;;;;;47.00;43.83;;;;;;;11.56;100.00;100939.81;2007918;71;32906;-71
2022/01/03 12:14:11;;;;;;;49.90;46.60;;;;;;;11.62;100.00;100939.51;2004260;71;32831;-71
2022/01/03 12:20:09;;;;;;;49.87;46.30;;;;;;;11.66;100.00;100922.50;2016576;71;32828;-72
2022/01/03 12:26:14;;;;;;;49.17;45.87;;;;;;;11.71;100.00;100921.08;1991504;71;32769;-75
2022/01/03 12:32:36;;;;;;;49.03;45.20;;;;;;;11.72;100.00;100919.95;2004504;71;32778;-78
2022/01/03 12:38:35;;;;;;;48.47;45.00;;;;;;;11.75;100.00;100908.27;2014806;71;33267;-78
2022/01/03 12:44:53;;;;;;;49.43;46.13;;;;;;;11.78;100.00;100899.89;2014963;71;32902;-78
2022/01/03 12:50:35;;;;;;;47.87;44.50;;;;;;;11.81;100.00;100895.95;2009344;70;32835;-70
2022/01/03 12:56:29;;;;;;;48.90;45.67;;;;;;;11.88;100.00;100880.32;2006231;71;30941;-73
2022/01/03 13:02:33;;;;;;;51.30;48.00;;;;;;;11.83;100.00;100867.28;2009318;71;32826;-78
2022/01/03 13:08:17;;;;;;;47.57;44.57;;;;;;;11.83;100.00;100858.09;2011390;71;32826;-69
2022/01/03 13:14:05;;;;;;;48.30;45.37;;;;;;;11.90;100.00;100856.34;2013016;71;33472;-76
2022/01/03 13:19:53;;;;;;;47.93;44.93;;;;;;;11.85;100.00;100848.32;2015128;71;32990;-75
2022/01/03 13:25:40;;;;;;;48.03;44.97;;;;;;;11.99;100.00;100843.45;1999568;71;33312;-74
2022/01/03 13:31:28;;;;;;;49.10;45.83;;;;;;;12.00;100.00;100833.42;1991377;71;32848;-72
2022/01/03 13:37:13;;;;;;;50.37;47.40;;;;;;;11.96;100.00;100824.56;2011348;71;33308;-76
2022/01/03 13:43:05;;;;;;;49.87;46.93;;;;;;;11.92;100.00;100814.59;2011140;70;32897;-73
2022/01/03 13:54:48;;;;;;;47.40;44.50;;;;;;;11.77;100.00;100799.42;1995278;71;32863;-73
2022/01/03 14:00:39;;;;;;;47.73;44.43;;;;;;;11.65;100.00;100797.02;2000251;71;32835;-77
2022/01/03 14:06:24;;;;;;;50.73;47.63;;;;;;;11.68;100.00;100798.41;2011897;71;32772;-72
2022/01/03 14:12:14;;;;;;;53.50;50.30;;;;;;;11.66;100.00;100783.39;2005730;71;32883;-78
2022/01/03 14:18:00;;;;;;;51.87;48.43;;;;;;;11.69;100.00;100788.91;2007982;70;33347;-75
2022/01/03 14:23:46;;;;;;;52.10;48.90;;;;;;;11.61;100.00;100776.48;2016496;71;32840;-77
2022/01/03 14:29:37;;;;;;;49.07;45.80;;;;;;;11.65;100.00;100776.16;2002657;71;32759;-72
2022/01/03 14:35:35;;;;;;;49.80;46.47;;;;;;;11.66;100.00;100771.42;2006263;71;33326;-79
2022/01/03 14:41:27;;;;;;;49.80;46.40;;;;;;;11.58;100.00;100764.55;2015069;70;32809;-79
2022/01/03 14:47:13;;;;;;;48.60;45.47;;;;;;;11.66;100.00;100754.73;2003969;71;33308;-74
2022/01/03 14:53:11;;;;;;;51.07;47.77;;;;;;;11.67;100.00;100736.36;2009803;71;32806;-67
2022/01/03 14:59:14;;;;;;;50.07;46.60;;;;;;;11.66;100.00;100734.70;2013183;71;32927;-74
2022/01/03 15:05:05;;;;;;;51.77;48.53;;;;;;;11.55;100.00;100734.52;1996811;71;32767;-73
2022/01/03 15:10:46;;;;;;;53.27;50.07;;;;;;;11.58;100.00;100733.12;2009088;71;32829;-67
2022/01/03 15:16:31;;;;;;;52.97;49.57;;;;;;;11.49;100.00;100742.67;2006299;71;32762;-70
2022/01/03 15:22:15;;;;;;;52.10;48.77;;;;;;;11.50;100.00;100729.04;2003768;71;32912;-76
2022/01/03 15:28:03;;;;;;;53.20;49.70;;;;;;;11.48;100.00;100731.27;2018295;71;32869;-68
2022/01/03 15:33:48;;;;;;;49.63;46.40;;;;;;;11.49;100.00;100723.76;2014990;71;32813;-77
2022/01/03 15:39:32;;;;;;;50.97;47.50;;;;;;;11.46;100.00;100722.41;2014888;71;33401;-70
2022/01/03 15:45:17;;;;;;;51.57;48.07;;;;;;;11.37;100.00;100713.05;2016718;70;32841;-75
2022/01/03 15:51:01;;;;;;;53.63;49.93;;;;;;;11.34;100.00;100711.66;1997000;71;33213;-76
2022/01/03 15:56:50;;;;;;;52.37;48.70;;;;;;;11.12;100.00;100706.34;1994680;71;33292;-75
2022/01/03 16:02:34;;;;;;;51.03;47.67;;;;;;;11.17;100.00;100696.54;2013436;71;33403;-76
2022/01/03 16:08:20;;;;;;;51.70;47.87;;;;;;;11.23;100.00;100696.22;2009086;71;32851;-74
2022/01/03 16:14:05;;;;;;;51.23;47.40;;;;;;;11.20;100.00;100694.59;1998648;71;33369;-75
2022/01/03 16:19:49;;;;;;;52.67;49.27;;;;;;;11.19;100.00;100681.24;2013837;71;33366;-77
2022/01/03 16:25:36;;;;;;;52.00;48.60;;;;;;;11.12;100.00;100658.53;1990830;71;33256;-70
2022/01/03 16:31:22;;;;;;;53.10;49.50;;;;;;;11.25;100.00;100655.61;2013113;71;32926;-78
2022/01/03 16:37:07;;;;;;;56.37;52.23;;;;;;;11.24;100.00;100653.95;2000160;71;33000;-74
2022/01/03 16:42:52;;;;;;;54.90;50.77;;;;;;;11.22;100.00;100662.58;2005116;71;32830;-76
2022/01/03 16:48:37;;;;;;;52.50;48.87;;;;;;;11.19;100.00;100670.13;2012848;71;32820;-69
2022/01/03 16:54:21;;;;;;;58.83;54.37;;;;;;;11.03;100.00;100665.02;2003994;71;33399;-77
2022/01/03 17:00:08;;;;;;;56.37;51.93;;;;;;;10.86;100.00;100655.17;1991480;71;33589;-73
2022/01/03 17:05:52;;;;;;;52.77;49.13;;;;;;;10.78;100.00;100656.36;2016974;71;32799;-77
2022/01/03 17:11:37;;;;;;;56.93;52.53;;;;;;;10.76;100.00;100646.91;1991503;71;32842;-75
2022/01/03 17:17:21;;;;;;;57.30;53.00;;;;;;;10.74;100.00;100644.17;2011720;71;32743;-73
2022/01/03 17:23:06;;;;;;;60.00;55.93;;;;;;;10.68;100.00;100623.93;2011030;71;32907;-74
2022/01/03 17:28:50;;;;;;;57.17;52.97;;;;;;;10.62;100.00;100613.97;2014861;71;32899;-77
2022/01/03 17:34:36;;;;;;;55.87;51.70;;;;;;;10.56;100.00;100635.16;2014695;71;32818;-77
2022/01/03 17:40:21;;;;;;;50.73;46.83;;;;;;;10.56;100.00;100640.15;1996888;71;32822;-75
2022/01/03 17:46:05;;;;;;;52.27;47.80;;;;;;;10.64;100.00;100638.13;2011125;71;32869;-74
2022/01/03 17:51:49;;;;;;;57.50;53.00;;;;;;;10.27;100.00;100557.38;2002632;71;33274;-75
2022/01/03 17:57:34;;;;;;;66.10;60.67;;;;;;;10.65;100.00;100616.19;2002788;71;33281;-75
2022/01/03 18:03:24;;;;;;;60.73;55.57;;;;;;;10.65;100.00;100610.64;2008422;70;32813;31
2022/01/03 18:09:13;;;;;;;55.30;51.10;;;;;;;10.61;100.00;100612.31;2011668;71;30801;-75
2022/01/03 18:15:03;;;;;;;54.53;50.43;;;;;;;10.72;100.00;100606.95;2018816;71;33344;-77
2022/01/03 18:20:47;;;;;;;54.67;50.07;;;;;;;10.80;100.00;100600.75;2003030;71;33379;-78
2022/01/03 18:26:31;;;;;;;59.37;54.40;;;;;;;10.69;100.00;100590.88;2011514;71;32886;-74
2022/01/03 18:32:15;;;;;;;56.07;51.37;;;;;;;10.67;100.00;100592.27;2016505;71;32891;-79
2022/01/03 18:38:00;;;;;;;52.83;48.53;;;;;;;10.64;100.00;100596.47;2004051;71;33406;-78
2022/01/03 18:43:46;;;;;;;53.60;49.50;;;;;;;10.60;100.00;100594.02;1995007;71;33317;-77
2022/01/03 18:49:30;;;;;;;55.00;50.57;;;;;;;10.59;100.00;100599.30;2016696;71;32808;-73
2022/01/03 18:55:18;;;;;;;56.03;51.53;;;;;;;10.53;100.00;100595.44;1999951;70;32927;-73
2022/01/03 19:01:03;;;;;;;53.37;49.07;;;;;;;10.59;100.00;100596.52;2011855;71;33368;-76
2022/01/03 19:06:47;;;;;;;55.83;50.93;;;;;;;10.55;100.00;100581.55;2007329;71;30929;-70
2022/01/03 19:12:39;;;;;;;54.93;50.23;;;;;;;10.56;100.00;100569.33;1904635;75;33176;-75
2022/01/03 19:18:26;;;;;;;53.33;48.50;;;;;;;10.58;100.00;100565.69;2008044;71;33345;-79
2022/01/03 19:24:11;;;;;;;56.10;51.30;;;;;;;10.45;100.00;100566.36;1995206;70;32852;-76
2022/01/03 19:29:54;;;;;;;53.97;49.63;;;;;;;10.57;100.00;100560.45;2016523;70;33349;-74
2022/01/03 19:41:42;;;;;;;55.63;50.87;;;;;;;10.55;100.00;100548.23;2018409;71;32887;-76
2022/01/03 19:47:26;;;;;;;57.27;53.07;;;;;;;10.52;100.00;100544.66;2018526;71;32794;-80
2022/01/03 19:53:12;;;;;;;56.23;51.70;;;;;;;10.52;100.00;100540.48;2002532;71;33266;-76
2022/01/03 19:58:57;;;;;;;57.80;53.17;;;;;;;10.51;100.00;100529.11;2013023;71;32922;-71
2022/01/03 20:04:43;;;;;;;57.03;52.53;;;;;;;10.37;100.00;100517.02;2013020;71;32868;-78
2022/01/03 20:10:28;;;;;;;57.17;52.70;;;;;;;10.50;100.00;100501.89;2018472;71;33415;-74
2022/01/03 20:16:13;;;;;;;53.27;48.70;;;;;;;10.39;100.00;100492.02;2011150;70;32795;-75
2022/01/03 20:21:58;;;;;;;55.90;51.23;;;;;;;10.33;100.00;100489.57;2009817;70;32801;-77
2022/01/03 20:27:42;;;;;;;57.80;53.20;;;;;;;10.30;100.00;100484.06;1977662;72;33439;-76
2022/01/03 20:33:28;;;;;;;56.97;52.53;;;;;;;10.16;100.00;100469.75;2000468;71;32800;-75
2022/01/03 20:39:13;;;;;;;54.33;50.13;;;;;;;10.28;100.00;100469.62;2009998;71;33297;-74
2022/01/03 20:45:02;;;;;;;58.97;53.97;;;;;;;10.27;100.00;100466.58;1997684;70;32749;-77
2022/01/03 20:50:46;;;;;;;56.40;51.90;;;;;;;10.23;100.00;100461.34;1991368;71;32828;-76
2022/01/03 20:56:30;;;;;;;56.13;51.33;;;;;;;10.10;100.00;100449.50;1995495;70;32741;-75
2022/01/03 21:02:15;;;;;;;55.60;51.03;;;;;;;10.12;100.00;100465.32;2000247;71;32925;-77
2022/01/03 21:08:00;;;;;;;54.63;50.20;;;;;;;10.11;100.00;100455.33;2013065;71;32870;-73
2022/01/03 21:13:46;;;;;;;54.33;49.60;;;;;;;9.99;100.00;100446.02;2000446;71;32747;-75
2022/01/03 21:19:30;;;;;;;54.33;49.67;;;;;;;9.97;100.00;100440.47;1998308;71;31028;-74
2022/01/03 21:25:16;;;;;;;55.90;51.00;;;;;;;10.17;100.00;100423.68;2012888;71;32819;-75
2022/01/03 21:31:01;;;;;;;54.43;49.90;;;;;;;10.06;100.00;100407.64;2014636;70;32895;-75
2022/01/03 21:36:46;;;;;;;55.53;50.93;;;;;;;10.02;100.00;100414.90;2000149;71;32891;-75
2022/01/03 21:42:31;;;;;;;54.00;49.50;;;;;;;10.03;100.00;100424.05;2009782;71;32819;-74
2022/01/03 21:48:15;;;;;;;56.90;52.43;;;;;;;9.96;100.00;100424.97;2007267;71;32796;-73
2022/01/03 21:54:00;;;;;;;56.53;51.73;;;;;;;9.96;100.00;100429.12;2018259;71;32888;-75
2022/01/03 21:59:45;;;;;;;61.17;56.00;;;;;;;9.88;100.00;100422.82;2009102;70;32834;-73
2022/01/03 22:05:29;;;;;;;56.03;51.10;;;;;;;9.82;100.00;100416.48;2016647;71;32846;-74
2022/01/03 22:11:17;;;;;;;54.40;49.70;;;;;;;9.75;100.00;100406.84;2007058;70;33277;-72
2022/01/03 22:17:01;;;;;;;54.07;49.83;;;;;;;9.72;100.00;100401.30;1951160;72;32819;-75
2022/01/03 22:22:45;;;;;;;55.53;50.73;;;;;;;9.60;100.00;100389.21;2014970;71;32831;-74
2022/01/03 22:28:29;;;;;;;61.40;56.33;;;;;;;9.80;100.00;100374.33;2007634;71;31503;-77
2022/01/03 22:34:13;;;;;;;61.70;56.50;;;;;;;9.62;100.00;100357.05;2016684;71;32904;-74
2022/01/03 22:39:59;;;;;;;54.97;50.43;;;;;;;9.44;100.00;100348.87;1991369;71;32749;-75
2022/01/03 22:45:43;;;;;;;51.37;47.20;;;;;;;9.40;100.00;100349.74;2000622;71;32923;-76
2022/01/03 22:51:29;;;;;;;59.30;54.83;;;;;;;9.49;100.00;100338.30;2008084;71;30817;-74
2022/01/03 22:57:14;;;;;;;50.23;45.80;;;;;;;9.36;100.00;100338.97;2000594;71;32864;-76
2022/01/03 23:02:58;;;;;;;50.67;46.63;;;;;;;9.45;100.00;100338.06;1996984;71;32780;-74
2022/01/03 23:08:43;;;;;;;52.47;47.97;;;;;;;9.40;100.00;100328.95;2006011;71;32821;-75
2022/01/03 23:14:27;;;;;;;53.27;48.87;;;;;;;9.47;100.00;100326.11;2005539;71;32865;-75
2022/01/03 23:20:13;;;;;;;53.07;49.00;;;;;;;9.55;100.00;100308.02;2016481;71;32888;-76
2022/01/03 23:25:57;;;;;;;50.83;46.83;;;;;;;9.59;100.00;100300.77;2016694;71;32966;-76
2022/01/03 23:31:41;;;;;;;53.23;49.23;;;;;;;9.61;100.00;100293.00;1994769;71;30884;-74
2022/01/03 23:37:25;;;;;;;53.23;48.87;;;;;;;9.64;100.00;100297.95;2006053;71;32833;-74
2022/01/03 23:43:10;;;;;;;51.63;47.33;;;;;;;9.58;100.00;100293.00;2014889;71;32845;-74
2022/01/03 23:48:55;;;;;;;52.57;48.60;;;;;;;9.70;100.00;100282.92;2014900;71;32841;-74
2022/01/03 23:54:39;;;;;;;54.13;49.80;;;;;;;9.62;100.00;100268.31;2016541;71;32929;-74
